Skip Navigation Links
NOAA logo - Click to go to the NOAA homepage
NOAA's National Weather Service
Alaska Aviation Weather Unit
  NWS logo - Click to go to the NWS homepage
Left Navbar Graphic     12 AKDT = 20 GMT

   
NOAA is celebrating 200 years of science, service, and stewardship. Visit the NOAA 200th celebration Web site to learn more.
USA.gov is the U.S. Government's official Web portal to all Federal, state and local government Web resources and services.
Facebook
NWS on Facebook

Important Change Regarding the AAWU Web Presence

 

Over the last several months, the AAWU has been working to navigate its webpages to a nationally supported server. Security, as well as other needs, have necessitated the change.  We have been given an extension for the site changeover while we diligently work at addressing feedback received. As of July 14, 2017, aawu.arh.noaa.gov will be discontinued. The new AAWU web address is weather.gov/aawu. It is now live and will run in-parallel with the old site until it is discontinued on July 14, 2017. Please continue to send any feedback or questions regarding the new webpages to nws.ar.aawu.webauthors@noaa.gov.  Thank you for your patience during this time of transition.
AAWU Home :: Display TAF Add Bookmark
TAF PAQT 251912Z 2519/2618 VRB04KT P6SM OVC013
     FM252100 05004KT P6SM SCT007 BKN050
     FM260600 05007KT 2SM BR OVC005=
PAQT 251413Z AUTO 00000KT 10SM BKN007 OVC024 05/05 A2998=

METAR PAQT 251453Z AUTO 00000KT 10SM OVC007 05/05 A2998 RMK AO2 SLP154
     T00500050 53005 TSNO=

PAQT 251518Z AUTO 00000KT 4SM BR OVC004 05/05 A2998=

PAQT 251531Z AUTO 11005KT 2SM BR OVC004 05/05 A2999=

METAR PAQT 251553Z AUTO 10004KT 3SM BR OVC003 05/05 A2999 RMK AO2
 SLP156 T00500050 TSNO=

PAQT 251601Z AUTO 13004KT 2 1/2SM BR OVC003 06/06 A2999=

SPECI PAQT 251624Z AUTO 00000KT 1 1/4SM BR OVC004 06/06 A2999 RMK AO2
     T00560056 TSNO=

PAQT 251633Z AUTO 10004KT 1 1/2SM BR OVC006 06/06 A2998=

PAQT 251638Z AUTO 09003KT 3SM BR BKN006 OVC009 06/06 A2998=

METAR PAQT 251653Z AUTO 11003KT 10SM OVC006 06/06 A2998 RMK AO2
 SLP154 T00610061 TSNO=

PAQT 251745Z AUTO 00000KT 10SM BKN010 OVC015 07/06 A2999=

METAR PAQT 251753Z AUTO 16003KT 10SM BKN010 OVC015 07/06 A2998 RMK AO2
     SLP154 T00670056 10067 20044 55001 TSNO=

PAQT 251800Z AUTO 13003KT 10SM OVC009 07/06 A2999=

PAQT 251817Z AUTO 00000KT 10SM OVC010 07/06 A2999=

METAR PAQT 251853Z AUTO 00000KT 10SM OVC013 07/06 A2998 RMK AO2 SLP154
     T00720061 TSNO=

METAR PAQT 251953Z AUTO 14003KT 10SM OVC013 08/06 A2999 RMK AO2 SLP155
     T00780056 TSNO=


NOAA's National Weather Service
Alaska Aviation Weather Unit
6930 Sand Lake Road
Anchorage, AK 99502-1845
Disclaimer
Credits
Glossary
Privacy Policy
About Us
Career Opportunities
Contact AAWU Internet Services Site last modified: April, 17th 2012